Gulf Islands National Seasho, Mississippi
Current Conditions -  °F | °C
As of 7:58 PM on Saturday 25 Oct 2014 (Local Time) from KBIX Reporting Station
Clear Clear  
Wind Chill: 67°   Ceiling: Unl
Heat Index: 67°   Visibility: 10mi
Dew Point: 62°   Wind: 1mph
Humidity: 81%   Direction: 300°WNW
Pressure: 30.07"   Gusts: NA
Location:  30.418°N, 88.7558°W
Report Text: KBIX 260058Z AUTO 30001KT 10SM CLR 20/16 A3007 RMK AO2 SLP186 T01970164
Loading
Personal Weather Stations






























Interactive Weather Map
Tropical Storm Tracking
New forecast layout! Learn more

10-Day Weather Forecast

Advertisements
Track Severe Weather on mobile